createdAt,value
2022-10-11T00:01:41.438Z,11.98
2022-10-11T00:04:08.077Z,14.20
2022-10-11T00:06:34.702Z,20.05
2022-10-11T00:09:01.284Z,15.63
2022-10-11T00:11:27.787Z,14.60
2022-10-11T00:13:54.360Z,17.13
2022-10-11T00:16:21.156Z,18.20
2022-10-11T00:18:47.708Z,10.70
2022-10-11T00:21:16.111Z,16.27
2022-10-11T00:23:43.345Z,11.52
2022-10-11T00:26:11.270Z,19.17
2022-10-11T00:28:38.284Z,19.23
2022-10-11T00:31:10.069Z,12.40
2022-10-11T00:33:36.665Z,13.50
2022-10-11T00:36:04.165Z,17.27
2022-10-11T00:38:32.091Z,11.50
2022-10-11T00:40:59.619Z,19.60
2022-10-11T00:43:28.713Z,25.05
2022-10-11T00:45:58.260Z,12.17
2022-10-11T00:48:32.588Z,18.17
2022-10-11T00:51:03.016Z,12.00
2022-10-11T00:53:31.322Z,16.60
2022-10-11T00:56:09.857Z,15.05
2022-10-11T00:58:38.216Z,18.27
2022-10-11T01:01:05.172Z,16.27
2022-10-11T01:03:33.024Z,11.77
2022-10-11T01:05:59.593Z,15.88
2022-10-11T01:08:27.211Z,15.43
2022-10-11T01:10:54.233Z,12.43
2022-10-11T01:13:47.513Z,21.77
2022-10-11T01:16:23.030Z,13.95
2022-10-11T01:19:08.109Z,13.30
2022-10-11T01:21:40.574Z,13.93
2022-10-11T01:24:26.339Z,23.20
2022-10-11T01:27:13.462Z,13.73
2022-10-11T01:30:01.640Z,15.48
2022-10-11T01:32:37.892Z,16.52
2022-10-11T01:35:16.812Z,12.00
2022-10-11T01:37:48.996Z,13.97
2022-10-11T01:40:24.785Z,16.30
2022-10-11T01:42:53.010Z,18.55
2022-10-11T01:45:20.652Z,12.73
2022-10-11T01:47:47.569Z,14.95
2022-10-11T01:50:51.272Z,17.50
2022-10-11T01:53:30.882Z,9.75
2022-10-11T01:56:01.752Z,8.43
2022-10-11T01:58:48.610Z,12.75
2022-10-11T02:01:26.935Z,11.05
2022-10-11T02:04:38.393Z,10.47
2022-10-11T02:07:19.667Z,15.05
2022-10-11T02:09:52.385Z,14.88
2022-10-11T02:12:30.788Z,13.32
2022-10-11T02:14:58.924Z,14.07
2022-10-11T02:17:33.955Z,11.83
2022-10-11T02:20:06.401Z,13.25
2022-10-11T02:22:37.061Z,14.63
2022-10-11T02:25:08.784Z,11.88
2022-10-11T02:27:38.792Z,15.00
2022-10-11T02:30:07.764Z,13.43
2022-10-11T02:32:38.048Z,11.25
2022-10-11T02:35:05.036Z,10.07
2022-10-11T02:37:52.776Z,14.38
2022-10-11T02:40:29.405Z,10.90
2022-10-11T02:43:11.028Z,10.17
2022-10-11T02:46:01.413Z,11.18
2022-10-11T02:48:29.525Z,17.02
2022-10-11T02:50:57.750Z,14.55
2022-10-11T02:53:26.542Z,11.43
2022-10-11T02:55:54.767Z,12.40
2022-10-11T02:58:22.349Z,10.85
2022-10-11T03:00:49.372Z,16.00
2022-10-11T03:03:15.900Z,13.65
2022-10-11T03:05:43.564Z,9.27
2022-10-11T03:08:15.309Z,12.53
2022-10-11T03:10:42.470Z,10.50
2022-10-11T03:13:09.126Z,10.90
2022-10-11T03:15:35.686Z,9.52
2022-10-11T03:18:02.295Z,13.45
2022-10-11T03:20:28.781Z,15.13
2022-10-11T03:22:55.270Z,14.18
2022-10-11T03:25:21.839Z,13.02
2022-10-11T03:27:48.366Z,11.80
2022-10-11T03:30:18.405Z,12.05
2022-10-11T03:32:45.176Z,9.43
2022-10-11T03:35:11.756Z,11.25
2022-10-11T03:37:38.256Z,14.13
2022-10-11T03:40:08.237Z,12.82
2022-10-11T03:42:35.309Z,13.98
2022-10-11T03:45:04.898Z,11.33
2022-10-11T03:47:32.127Z,10.77
2022-10-11T03:49:58.678Z,9.88
2022-10-11T03:52:25.239Z,9.95
2022-10-11T03:54:51.873Z,8.15
2022-10-11T03:57:18.374Z,11.50
2022-10-11T03:59:44.880Z,14.35
2022-10-11T04:02:11.438Z,12.65
2022-10-11T04:04:38.025Z,12.65
2022-10-11T04:07:04.527Z,11.15
2022-10-11T04:09:31.110Z,8.83
2022-10-11T04:11:57.601Z,10.90
2022-10-11T04:14:24.192Z,10.02
2022-10-11T04:16:50.762Z,11.80
2022-10-11T04:19:17.281Z,19.75
2022-10-11T04:21:43.920Z,11.03
2022-10-11T04:24:13.290Z,12.18
2022-10-11T04:26:39.911Z,11.55
2022-10-11T04:29:06.410Z,13.02
2022-10-11T04:31:32.883Z,10.32
2022-10-11T04:33:59.515Z,11.10
2022-10-11T04:36:26.064Z,14.98
2022-10-11T04:38:52.804Z,13.77
2022-10-11T04:41:19.279Z,17.85
2022-10-11T04:43:45.815Z,16.48
2022-10-11T04:46:15.311Z,15.00
2022-10-11T04:48:41.954Z,7.65
2022-10-11T04:51:08.760Z,14.43
2022-10-11T04:53:35.241Z,13.73
2022-10-11T04:56:05.081Z,20.80
2022-10-11T04:58:35.679Z,10.20
2022-10-11T05:01:02.250Z,16.55
2022-10-11T05:03:28.780Z,10.88
2022-10-11T05:05:55.349Z,15.02
2022-10-11T05:08:25.303Z,12.93
2022-10-11T05:11:02.646Z,16.57
2022-10-11T05:13:30.071Z,12.30
2022-10-11T05:15:57.329Z,11.50
2022-10-11T05:18:24.802Z,6.95
2022-10-11T05:21:14.766Z,12.15
2022-10-11T05:23:41.945Z,15.80
2022-10-11T05:26:08.895Z,9.20
2022-10-11T05:28:35.567Z,19.27
2022-10-11T05:31:02.091Z,22.70
2022-10-11T05:33:28.687Z,19.85
2022-10-11T05:35:55.313Z,14.53
2022-10-11T05:38:22.836Z,14.10
2022-10-11T05:40:49.784Z,10.35
2022-10-11T05:43:16.495Z,14.30
2022-10-11T05:45:44.056Z,9.80
2022-10-11T05:48:11.134Z,11.70
2022-10-11T05:50:38.451Z,16.17
2022-10-11T05:53:05.966Z,13.00
2022-10-11T05:55:39.330Z,13.38
2022-10-11T05:58:06.767Z,16.13
2022-10-11T06:00:36.764Z,12.90
2022-10-11T06:03:03.842Z,11.50
2022-10-11T06:05:30.339Z,17.58
2022-10-11T06:07:58.281Z,14.00
2022-10-11T06:10:25.825Z,16.70
2022-10-11T06:12:52.560Z,13.70
2022-10-11T06:15:19.154Z,14.25
2022-10-11T06:17:47.148Z,17.08
2022-10-11T06:20:14.343Z,22.65
2022-10-11T06:22:41.017Z,16.65
2022-10-11T06:25:07.901Z,19.43
2022-10-11T06:27:34.465Z,15.25
2022-10-11T06:30:00.957Z,38.92
2022-10-11T06:32:27.481Z,15.13
2022-10-11T06:34:54.069Z,21.92
2022-10-11T06:37:20.674Z,19.63
2022-10-11T06:39:47.165Z,15.85
2022-10-11T06:42:14.006Z,17.65
2022-10-11T06:44:40.510Z,14.38
2022-10-11T06:47:08.001Z,16.30
2022-10-11T06:49:35.256Z,21.10
2022-10-11T06:52:01.914Z,21.10
2022-10-11T06:54:28.424Z,11.50
2022-10-11T06:56:54.919Z,15.77
2022-10-11T06:59:21.432Z,21.80
2022-10-11T07:01:47.927Z,13.70
2022-10-11T07:04:14.449Z,16.83
2022-10-11T07:06:41.645Z,13.98
2022-10-11T07:09:08.597Z,15.63
2022-10-11T07:11:35.315Z,15.80
2022-10-11T07:14:07.461Z,11.87
2022-10-11T07:16:36.580Z,11.93
2022-10-11T07:19:05.874Z,8.35
2022-10-11T07:21:34.068Z,17.77
2022-10-11T07:24:01.727Z,13.20
2022-10-11T07:26:32.406Z,18.93
2022-10-11T07:29:00.565Z,10.45
2022-10-11T07:31:27.574Z,13.40
2022-10-11T07:33:54.077Z,10.80
2022-10-11T07:36:20.758Z,14.32
2022-10-11T07:38:47.532Z,10.03
2022-10-11T07:41:14.624Z,13.85
2022-10-11T07:43:43.376Z,12.35
2022-10-11T07:46:10.871Z,13.25
2022-10-11T07:48:38.319Z,21.23
2022-10-11T07:51:09.189Z,14.83
2022-10-11T07:53:44.177Z,16.33
2022-10-11T07:56:12.630Z,8.90
2022-10-11T07:58:41.016Z,28.58
2022-10-11T08:01:08.961Z,9.85
2022-10-11T08:03:37.284Z,12.23
2022-10-11T08:06:07.429Z,9.65
2022-10-11T08:08:34.390Z,15.15
2022-10-11T08:11:01.277Z,10.18
2022-10-11T08:13:28.434Z,11.57
2022-10-11T08:16:19.038Z,10.53
2022-10-11T08:18:45.779Z,13.50
2022-10-11T08:21:14.882Z,10.35
2022-10-11T08:23:42.060Z,12.88
2022-10-11T08:26:09.724Z,16.23
2022-10-11T08:28:37.020Z,8.53
2022-10-11T08:31:04.347Z,12.15
2022-10-11T08:33:31.238Z,18.00
2022-10-11T08:35:58.395Z,11.90
2022-10-11T08:38:25.474Z,10.30
2022-10-11T08:40:55.288Z,11.80
2022-10-11T08:43:31.091Z,10.52
2022-10-11T08:46:02.894Z,10.68
2022-10-11T08:48:35.621Z,10.80
2022-10-11T08:51:12.019Z,13.35
2022-10-11T08:53:47.958Z,7.50
2022-10-11T08:56:16.359Z,10.05
2022-10-11T08:58:51.710Z,9.13
2022-10-11T09:01:24.981Z,12.50
2022-10-11T09:03:52.142Z,13.98
2022-10-11T09:06:18.640Z,10.67
2022-10-11T09:09:19.328Z,11.38
2022-10-11T09:12:05.503Z,10.25
2022-10-11T09:14:31.987Z,9.20
2022-10-11T09:17:21.231Z,13.32
2022-10-11T09:20:00.778Z,9.27
2022-10-11T09:22:49.259Z,15.70
2022-10-11T09:25:24.250Z,11.25
2022-10-11T09:28:13.470Z,9.05
2022-10-11T09:30:48.305Z,8.27
2022-10-11T09:33:19.144Z,9.40
2022-10-11T09:35:49.584Z,11.05
2022-10-11T09:38:27.985Z,15.15
2022-10-11T09:41:06.016Z,18.65
2022-10-11T09:43:32.644Z,13.65
2022-10-11T09:45:59.319Z,12.03
2022-10-11T09:48:38.803Z,11.57
2022-10-11T09:51:11.769Z,11.18
2022-10-11T09:53:59.159Z,12.63
2022-10-11T09:56:29.353Z,15.45
2022-10-11T09:59:28.461Z,10.10
2022-10-11T10:02:13.482Z,12.40
2022-10-11T10:05:09.249Z,18.38
2022-10-11T10:07:38.255Z,7.55
2022-10-11T10:10:46.053Z,13.45
2022-10-11T10:13:21.983Z,10.77
2022-10-11T10:15:51.897Z,10.77
2022-10-11T10:18:24.768Z,10.35
2022-10-11T10:20:54.743Z,12.00
2022-10-11T10:23:26.611Z,10.45
2022-10-11T10:26:10.519Z,14.90
2022-10-11T10:28:37.286Z,46.42
2022-10-11T10:31:03.939Z,16.08
2022-10-11T10:33:34.157Z,6.65
2022-10-11T10:36:03.377Z,6.85
2022-10-11T10:38:37.428Z,8.83
2022-10-11T10:41:11.850Z,8.55
2022-10-11T10:43:41.844Z,8.68
2022-10-11T10:46:19.442Z,8.35
2022-10-11T10:49:41.633Z,12.52
2022-10-11T10:52:13.086Z,12.30
2022-10-11T10:54:43.343Z,7.72
2022-10-11T10:57:17.329Z,10.70
2022-10-11T11:00:02.800Z,6.40
2022-10-11T11:02:41.306Z,11.20
2022-10-11T11:05:21.411Z,13.97
2022-10-11T11:08:07.270Z,12.70
2022-10-11T11:10:47.461Z,13.55
2022-10-11T11:13:35.428Z,5.88
2022-10-11T11:16:13.903Z,19.63
2022-10-11T11:18:46.209Z,8.47
2022-10-11T11:21:34.981Z,7.65
2022-10-11T11:24:21.189Z,27.67
2022-10-11T11:26:59.075Z,13.75
2022-10-11T11:29:53.116Z,8.40
2022-10-11T11:32:49.644Z,3.93
2022-10-11T11:35:41.293Z,5.45
2022-10-11T11:38:39.229Z,5.45
2022-10-11T11:41:13.293Z,6.53
2022-10-11T11:43:56.664Z,9.27
2022-10-11T11:46:28.722Z,15.23
2022-10-11T11:48:58.726Z,9.10
2022-10-11T11:51:32.376Z,6.22
2022-10-11T11:54:20.696Z,7.55
2022-10-11T11:57:27.556Z,11.77
2022-10-11T12:00:06.097Z,9.33
2022-10-11T12:02:38.568Z,8.32
2022-10-11T12:05:10.259Z,3.50
2022-10-11T12:07:58.318Z,12.13
2022-10-11T12:10:30.418Z,8.52
2022-10-11T12:13:15.312Z,6.60
2022-10-11T12:16:06.248Z,5.55
2022-10-11T12:18:37.188Z,7.95
2022-10-11T12:21:20.179Z,6.10
2022-10-11T12:23:50.175Z,7.28
2022-10-11T12:26:28.107Z,9.07
2022-10-11T12:29:28.680Z,3.95
2022-10-11T12:31:58.692Z,10.35
2022-10-11T12:34:43.600Z,6.38
2022-10-11T12:37:22.584Z,5.78
2022-10-11T12:39:59.039Z,6.23
2022-10-11T12:42:32.099Z,12.07
2022-10-11T12:45:21.987Z,10.68
2022-10-11T12:48:21.597Z,5.35
2022-10-11T12:51:19.171Z,3.85
2022-10-11T12:54:25.945Z,7.37
2022-10-11T12:57:12.032Z,8.55
2022-10-11T12:59:45.219Z,12.50
2022-10-11T13:02:29.285Z,4.78
2022-10-11T13:05:20.840Z,6.28
2022-10-11T13:07:48.022Z,9.87
2022-10-11T13:10:16.335Z,9.52
2022-10-11T13:12:45.172Z,8.75
2022-10-11T13:15:16.954Z,10.75
2022-10-11T13:17:43.518Z,11.45
2022-10-11T13:20:16.560Z,5.47
2022-10-11T13:22:47.294Z,10.70
2022-10-11T13:25:22.990Z,4.05
2022-10-11T13:27:52.540Z,10.23
2022-10-11T13:30:29.742Z,5.22
2022-10-11T13:32:57.560Z,10.03
2022-10-11T13:35:38.164Z,10.63
2022-10-11T13:38:08.948Z,7.22
2022-10-11T13:40:35.980Z,10.40
2022-10-11T13:43:05.576Z,7.97
2022-10-11T13:45:35.817Z,6.97
2022-10-11T13:48:02.872Z,7.60
2022-10-11T13:50:33.564Z,7.38
2022-10-11T13:53:01.662Z,10.73
2022-10-11T13:55:35.772Z,6.60
2022-10-11T13:58:18.493Z,10.60
2022-10-11T14:00:54.318Z,9.55
2022-10-11T14:03:21.881Z,9.70
2022-10-11T14:05:59.521Z,10.90
2022-10-11T14:08:39.968Z,8.35
2022-10-11T14:11:07.983Z,6.83
2022-10-11T14:13:41.622Z,9.38
2022-10-11T14:16:30.070Z,7.00
2022-10-11T14:18:59.532Z,7.63
2022-10-11T14:21:30.721Z,5.43
2022-10-11T14:24:05.105Z,7.20
2022-10-11T14:26:35.922Z,7.10
2022-10-11T14:29:13.588Z,6.70
2022-10-11T14:31:42.140Z,8.30
2022-10-11T14:34:17.720Z,8.00
2022-10-11T14:36:44.263Z,9.13
2022-10-11T14:39:18.775Z,9.85
2022-10-11T14:41:45.627Z,13.63
2022-10-11T14:44:13.040Z,4.32
2022-10-11T14:46:40.953Z,11.68
2022-10-11T14:49:16.176Z,9.47
2022-10-11T14:51:43.668Z,7.13
2022-10-11T14:54:10.500Z,7.20
2022-10-11T14:56:37.042Z,13.32
2022-10-11T14:59:03.614Z,7.38
2022-10-11T15:01:30.226Z,11.67
2022-10-11T15:03:56.833Z,6.65
2022-10-11T15:06:30.061Z,10.60
2022-10-11T15:08:56.594Z,6.10
2022-10-11T15:11:24.069Z,11.32
2022-10-11T15:13:50.901Z,10.47
2022-10-11T15:16:20.459Z,8.27
2022-10-11T15:18:50.999Z,11.50
2022-10-11T15:21:19.731Z,6.57
2022-10-11T15:23:47.087Z,7.32
2022-10-11T15:26:15.763Z,10.93
2022-10-11T15:28:43.261Z,10.32
2022-10-11T15:31:10.824Z,8.20
2022-10-11T15:33:38.490Z,11.88
2022-10-11T15:36:08.443Z,10.15
2022-10-11T15:38:35.238Z,6.47
2022-10-11T15:41:01.920Z,4.32
2022-10-11T15:43:28.527Z,6.95
2022-10-11T15:45:56.411Z,6.95
2022-10-11T15:48:26.357Z,10.30
2022-10-11T15:50:54.627Z,8.87
2022-10-11T15:53:24.841Z,12.48
2022-10-11T15:55:54.004Z,9.23
2022-10-11T15:58:22.308Z,16.77
2022-10-11T16:00:51.229Z,7.15
2022-10-11T16:03:18.384Z,10.07
2022-10-11T16:05:45.057Z,9.25
2022-10-11T16:08:12.054Z,14.07
2022-10-11T16:10:39.438Z,14.48
2022-10-11T16:13:06.203Z,10.48
2022-10-11T16:15:32.798Z,10.27
2022-10-11T16:17:59.351Z,13.95
2022-10-11T16:20:25.905Z,17.85
2022-10-11T16:22:54.397Z,15.65
2022-10-11T16:25:22.046Z,9.73
2022-10-11T16:27:48.587Z,8.13
2022-10-11T16:30:16.231Z,10.38
2022-10-11T16:32:44.435Z,13.38
2022-10-11T16:35:12.780Z,16.25
2022-10-11T16:37:39.353Z,13.13
2022-10-11T16:40:07.713Z,10.23
2022-10-11T16:42:34.356Z,8.95
2022-10-11T16:45:00.921Z,8.38
2022-10-11T16:47:27.609Z,11.65
2022-10-11T16:49:54.203Z,15.77
2022-10-11T16:52:21.196Z,9.30
2022-10-11T16:54:48.529Z,11.88
2022-10-11T16:57:17.573Z,12.68
2022-10-11T16:59:44.570Z,13.73
2022-10-11T17:02:17.158Z,11.30
2022-10-11T17:04:44.144Z,13.80
2022-10-11T17:07:12.997Z,26.55
2022-10-11T17:09:44.475Z,15.50
2022-10-11T17:12:13.845Z,12.82
2022-10-11T17:14:41.086Z,20.45
2022-10-11T17:17:09.757Z,21.80
2022-10-11T17:19:42.609Z,16.15
2022-10-11T17:22:13.456Z,23.30
2022-10-11T17:24:40.278Z,21.25
2022-10-11T17:27:07.088Z,23.55
2022-10-11T17:29:36.137Z,19.10
2022-10-11T17:32:03.067Z,24.10
2022-10-11T17:34:29.608Z,21.35
2022-10-11T17:36:56.313Z,16.85
2022-10-11T17:39:23.728Z,23.13
2022-10-11T17:41:51.205Z,26.37
2022-10-11T17:44:18.575Z,22.17
2022-10-11T17:46:46.057Z,23.95
2022-10-11T17:49:13.481Z,26.17
2022-10-11T17:51:40.586Z,28.98
2022-10-11T17:54:12.279Z,44.70
2022-10-11T17:56:40.545Z,44.22
2022-10-11T17:59:08.135Z,95.30
2022-10-11T18:01:35.326Z,64.20
2022-10-11T18:04:04.264Z,38.60
2022-10-11T18:06:34.120Z,41.57
2022-10-11T18:09:02.475Z,33.35
2022-10-11T18:11:29.941Z,39.90
2022-10-11T18:13:56.573Z,34.45
2022-10-11T18:16:26.903Z,28.27
2022-10-11T18:18:54.263Z,30.00
2022-10-11T18:21:20.904Z,26.48
2022-10-11T18:23:47.436Z,25.60
2022-10-11T18:26:19.754Z,23.05
2022-10-11T18:28:47.011Z,32.90
2022-10-11T18:31:19.691Z,29.53
2022-10-11T18:33:47.300Z,31.30
2022-10-11T18:36:16.576Z,25.40
2022-10-11T18:38:46.649Z,29.20
2022-10-11T18:41:18.714Z,27.88
2022-10-11T18:43:53.607Z,31.27
2022-10-11T18:46:21.441Z,33.88
2022-10-11T18:48:50.630Z,26.63
2022-10-11T18:51:22.805Z,25.52
2022-10-11T18:53:50.198Z,25.13
2022-10-11T18:56:20.594Z,23.43
2022-10-11T18:58:49.064Z,25.88
2022-10-11T19:01:21.450Z,28.63
2022-10-11T19:03:52.461Z,21.38
2022-10-11T19:06:22.259Z,19.77
2022-10-11T19:08:53.105Z,26.40
2022-10-11T19:11:22.286Z,24.27
2022-10-11T19:13:55.476Z,27.27
2022-10-11T19:16:22.001Z,23.35
2022-10-11T19:18:50.108Z,40.92
2022-10-11T19:21:16.860Z,23.47
2022-10-11T19:23:45.511Z,29.58
2022-10-11T19:26:24.294Z,29.33
2022-10-11T19:29:02.529Z,26.48
2022-10-11T19:31:30.429Z,28.17
2022-10-11T19:33:58.182Z,29.17
2022-10-11T19:36:24.740Z,26.92
2022-10-11T19:38:52.556Z,30.52
2022-10-11T19:41:20.006Z,33.88
2022-10-11T19:43:46.954Z,29.02
2022-10-11T19:46:27.287Z,29.83
2022-10-11T19:49:03.441Z,28.95
2022-10-11T19:51:34.890Z,27.98
2022-10-11T19:54:03.914Z,29.92
2022-10-11T19:56:32.606Z,23.65
2022-10-11T19:59:00.368Z,28.20
2022-10-11T20:01:30.059Z,21.27
2022-10-11T20:04:03.474Z,26.77
2022-10-11T20:06:37.185Z,29.65
2022-10-11T20:09:27.959Z,27.73
2022-10-11T20:11:51.864Z,37.83
2022-10-11T20:14:18.341Z,31.05
2022-10-11T20:16:44.902Z,34.40
2022-10-11T20:19:11.596Z,32.58
2022-10-11T20:21:38.667Z,31.05
2022-10-11T20:24:06.925Z,31.83
2022-10-11T20:26:34.309Z,23.85
2022-10-11T20:29:00.863Z,29.98
2022-10-11T20:31:31.139Z,30.00
2022-10-11T20:34:01.236Z,26.50
2022-10-11T20:36:30.219Z,29.27
2022-10-11T20:38:58.515Z,28.42
2022-10-11T20:41:27.762Z,43.13
2022-10-11T20:43:56.303Z,46.08
2022-10-11T20:46:25.588Z,39.08
2022-10-11T20:49:01.324Z,42.73
2022-10-11T20:51:33.285Z,41.22
2022-10-11T20:54:00.694Z,35.55
2022-10-11T20:56:27.633Z,32.15
2022-10-11T20:58:56.319Z,34.28
2022-10-11T21:01:28.287Z,40.00
2022-10-11T21:03:57.800Z,33.45
2022-10-11T21:06:25.042Z,36.28
2022-10-11T21:08:51.568Z,34.80
2022-10-11T21:11:18.049Z,34.20
2022-10-11T21:13:44.622Z,42.47
2022-10-11T21:16:13.889Z,28.65
2022-10-11T21:18:40.552Z,35.90
2022-10-11T21:21:08.895Z,35.67
2022-10-11T21:23:35.462Z,45.25
2022-10-11T21:26:07.340Z,42.93
2022-10-11T21:28:34.144Z,44.38
2022-10-11T21:31:15.768Z,34.55
2022-10-11T21:33:43.815Z,28.88
2022-10-11T21:36:21.700Z,33.15
2022-10-11T21:38:49.408Z,39.77
2022-10-11T21:41:18.563Z,39.28
2022-10-11T21:43:45.420Z,52.78
2022-10-11T21:46:54.019Z,47.60
2022-10-11T21:49:15.663Z,39.60
2022-10-11T21:51:42.479Z,31.20
2022-10-11T21:54:08.988Z,32.67
2022-10-11T21:56:35.989Z,30.48
2022-10-11T21:59:05.376Z,32.40
2022-10-11T22:01:34.618Z,36.17
2022-10-11T22:04:01.195Z,31.73
2022-10-11T22:06:27.732Z,28.60
2022-10-11T22:08:54.247Z,25.65
2022-10-11T22:11:20.796Z,33.25
2022-10-11T22:13:47.315Z,35.83
2022-10-11T22:16:14.294Z,37.53
2022-10-11T22:18:41.894Z,24.02
2022-10-11T22:21:17.584Z,29.05
2022-10-11T22:23:46.832Z,28.02
2022-10-11T22:26:16.081Z,27.13
2022-10-11T22:28:43.089Z,24.57
2022-10-11T22:31:10.928Z,30.73
2022-10-11T22:33:37.554Z,27.30
2022-10-11T22:36:08.608Z,28.95
2022-10-11T22:38:36.944Z,26.83
2022-10-11T22:41:03.630Z,37.37
2022-10-11T22:43:30.228Z,24.23
2022-10-11T22:45:56.695Z,23.98
2022-10-11T22:48:23.245Z,24.30
2022-10-11T22:50:49.769Z,28.30
2022-10-11T22:53:16.332Z,26.27
2022-10-11T22:55:43.039Z,23.88
2022-10-11T22:58:09.821Z,30.45
2022-10-11T23:00:36.740Z,32.42
2022-10-11T23:03:03.717Z,30.27
2022-10-11T23:05:30.252Z,29.00
2022-10-11T23:07:56.716Z,33.55
2022-10-11T23:10:23.226Z,24.63
2022-10-11T23:12:49.711Z,23.02
2022-10-11T23:15:16.226Z,26.55
2022-10-11T23:17:42.764Z,26.37
2022-10-11T23:20:09.861Z,30.88
2022-10-11T23:22:36.364Z,32.22
2022-10-11T23:25:02.951Z,26.77
2022-10-11T23:27:30.228Z,29.15
2022-10-11T23:29:56.755Z,25.03
2022-10-11T23:32:23.750Z,20.92
2022-10-11T23:34:51.437Z,27.40
2022-10-11T23:37:18.010Z,26.67
2022-10-11T23:39:44.522Z,27.35
2022-10-11T23:42:11.026Z,22.93
2022-10-11T23:44:37.490Z,18.80
2022-10-11T23:47:04.043Z,26.27
2022-10-11T23:49:30.529Z,30.77
2022-10-11T23:51:57.315Z,22.48
2022-10-11T23:54:23.965Z,20.37
2022-10-11T23:56:50.473Z,20.13
2022-10-11T23:59:16.983Z,19.48
